sensor_id;sensor_type;location;lat;lon;timestamp;pressure;altitude;pressure_sealevel;temperature;humidity
52291;BME280;39663;45.432;28.050;2023-08-12T00:00:27;101608.47;;;22.91;41.37
52291;BME280;39663;45.432;28.050;2023-08-12T00:00:58;101606.81;;;23.20;41.42
52291;BME280;39663;45.432;28.050;2023-08-12T00:01:30;101607.17;;;22.98;41.01
52291;BME280;39663;45.432;28.050;2023-08-12T00:02:02;101602.83;;;23.13;40.72
52291;BME280;39663;45.432;28.050;2023-08-12T00:02:34;101608.87;;;22.88;41.06
52291;BME280;39663;45.432;28.050;2023-08-12T00:03:06;101602.74;;;23.41;40.74
52291;BME280;39663;45.432;28.050;2023-08-12T00:03:38;101598.87;;;23.18;40.88
52291;BME280;39663;45.432;28.050;2023-08-12T00:04:10;101603.03;;;23.00;41.05
52291;BME280;39663;45.432;28.050;2023-08-12T00:04:41;101601.77;;;23.45;40.88
52291;BME280;39663;45.432;28.050;2023-08-12T00:05:13;101602.56;;;23.17;40.89
52291;BME280;39663;45.432;28.050;2023-08-12T00:05:46;101604.57;;;23.32;40.52
52291;BME280;39663;45.432;28.050;2023-08-12T00:06:17;101605.00;;;23.11;40.72
52291;BME280;39663;45.432;28.050;2023-08-12T00:06:49;101606.23;;;23.05;40.82
52291;BME280;39663;45.432;28.050;2023-08-12T00:07:20;101600.71;;;23.13;40.82
52291;BME280;39663;45.432;28.050;2023-08-12T00:07:52;101606.32;;;23.19;40.94
52291;BME280;39663;45.432;28.050;2023-08-12T00:08:24;101604.14;;;23.00;41.38
52291;BME280;39663;45.432;28.050;2023-08-12T00:08:55;101606.44;;;23.21;41.01
52291;BME280;39663;45.432;28.050;2023-08-12T00:09:27;101608.37;;;23.00;41.24
52291;BME280;39663;45.432;28.050;2023-08-12T00:09:59;101610.42;;;23.09;41.16
52291;BME280;39663;45.432;28.050;2023-08-12T00:10:30;101607.50;;;23.01;41.21
52291;BME280;39663;45.432;28.050;2023-08-12T00:11:02;101612.41;;;22.98;41.31
52291;BME280;39663;45.432;28.050;2023-08-12T00:11:34;101608.45;;;23.09;41.28
52291;BME280;39663;45.432;28.050;2023-08-12T00:12:06;101606.49;;;23.08;41.35
52291;BME280;39663;45.432;28.050;2023-08-12T00:12:39;101606.78;;;23.11;41.15
52291;BME280;39663;45.432;28.050;2023-08-12T00:13:11;101605.64;;;22.87;41.22
52291;BME280;39663;45.432;28.050;2023-08-12T00:13:42;101611.45;;;23.13;41.31
52291;BME280;39663;45.432;28.050;2023-08-12T00:14:14;101609.03;;;23.22;41.01
52291;BME280;39663;45.432;28.050;2023-08-12T00:14:45;101606.44;;;23.02;41.28
52291;BME280;39663;45.432;28.050;2023-08-12T00:15:17;101607.17;;;23.13;41.19
52291;BME280;39663;45.432;28.050;2023-08-12T00:15:48;101609.59;;;23.02;41.21
52291;BME280;39663;45.432;28.050;2023-08-12T00:16:20;101603.55;;;23.28;41.13
52291;BME280;39663;45.432;28.050;2023-08-12T00:16:52;101605.68;;;23.23;41.27
52291;BME280;39663;45.432;28.050;2023-08-12T00:17:24;101607.23;;;23.25;41.24
52291;BME280;39663;45.432;28.050;2023-08-12T00:17:56;101604.94;;;23.11;41.03
52291;BME280;39663;45.432;28.050;2023-08-12T00:18:28;101607.09;;;23.30;40.99
52291;BME280;39663;45.432;28.050;2023-08-12T00:18:59;101606.55;;;23.38;40.82
52291;BME280;39663;45.432;28.050;2023-08-12T00:19:31;101607.16;;;23.44;40.72
52291;BME280;39663;45.432;28.050;2023-08-12T00:20:04;101605.17;;;23.28;40.63
52291;BME280;39663;45.432;28.050;2023-08-12T00:20:36;101604.69;;;23.37;40.79
52291;BME280;39663;45.432;28.050;2023-08-12T00:21:08;101606.24;;;23.15;40.88
52291;BME280;39663;45.432;28.050;2023-08-12T00:21:40;101605.35;;;23.43;40.65
52291;BME280;39663;45.432;28.050;2023-08-12T00:22:12;101607.40;;;23.12;40.69
52291;BME280;39663;45.432;28.050;2023-08-12T00:22:43;101606.75;;;23.14;40.90
52291;BME280;39663;45.432;28.050;2023-08-12T00:23:15;101607.15;;;23.36;40.90
52291;BME280;39663;45.432;28.050;2023-08-12T00:23:47;101607.11;;;23.39;40.89
52291;BME280;39663;45.432;28.050;2023-08-12T00:24:18;101607.41;;;23.41;40.73
52291;BME280;39663;45.432;28.050;2023-08-12T00:24:50;101609.22;;;23.25;40.68
52291;BME280;39663;45.432;28.050;2023-08-12T00:25:22;101608.52;;;23.28;40.46
52291;BME280;39663;45.432;28.050;2023-08-12T00:25:58;101608.32;;;23.02;40.71
52291;BME280;39663;45.432;28.050;2023-08-12T00:26:30;101606.41;;;23.32;40.58
52291;BME280;39663;45.432;28.050;2023-08-12T00:27:01;101610.97;;;23.34;40.75
52291;BME280;39663;45.432;28.050;2023-08-12T00:27:33;101607.57;;;23.39;40.43
52291;BME280;39663;45.432;28.050;2023-08-12T00:28:05;101609.67;;;23.41;40.62
52291;BME280;39663;45.432;28.050;2023-08-12T00:28:37;101607.60;;;23.45;40.33
52291;BME280;39663;45.432;28.050;2023-08-12T00:29:09;101607.50;;;23.22;40.44
52291;BME280;39663;45.432;28.050;2023-08-12T00:29:41;101611.11;;;23.53;40.42
52291;BME280;39663;45.432;28.050;2023-08-12T00:30:13;101610.59;;;23.43;40.39
52291;BME280;39663;45.432;28.050;2023-08-12T00:30:47;101610.00;;;23.57;40.38
52291;BME280;39663;45.432;28.050;2023-08-12T00:31:19;101610.58;;;23.62;40.24
52291;BME280;39663;45.432;28.050;2023-08-12T00:31:50;101610.27;;;23.47;40.32
52291;BME280;39663;45.432;28.050;2023-08-12T00:32:22;101610.55;;;23.44;40.57
52291;BME280;39663;45.432;28.050;2023-08-12T00:32:54;101611.42;;;23.22;40.76
52291;BME280;39663;45.432;28.050;2023-08-12T00:33:25;101612.49;;;23.18;40.60
52291;BME280;39663;45.432;28.050;2023-08-12T00:33:57;101615.05;;;23.19;40.75
52291;BME280;39663;45.432;28.050;2023-08-12T00:34:28;101615.85;;;23.41;40.66
52291;BME280;39663;45.432;28.050;2023-08-12T00:35:00;101618.22;;;23.17;40.79
52291;BME280;39663;45.432;28.050;2023-08-12T00:35:32;101615.63;;;23.48;40.77
52291;BME280;39663;45.432;28.050;2023-08-12T00:36:04;101618.52;;;23.29;40.47
52291;BME280;39663;45.432;28.050;2023-08-12T00:36:35;101618.19;;;23.58;40.32
52291;BME280;39663;45.432;28.050;2023-08-12T00:37:07;101613.76;;;23.56;40.35
52291;BME280;39663;45.432;28.050;2023-08-12T00:37:39;101616.77;;;23.40;40.68
52291;BME280;39663;45.432;28.050;2023-08-12T00:38:10;101621.36;;;23.40;40.45
52291;BME280;39663;45.432;28.050;2023-08-12T00:38:42;101613.14;;;23.33;40.63
52291;BME280;39663;45.432;28.050;2023-08-12T00:39:14;101618.44;;;23.31;40.77
52291;BME280;39663;45.432;28.050;2023-08-12T00:39:46;101617.52;;;23.35;40.73
52291;BME280;39663;45.432;28.050;2023-08-12T00:40:17;101622.06;;;23.18;40.79
52291;BME280;39663;45.432;28.050;2023-08-12T00:40:49;101620.70;;;23.29;40.92
52291;BME280;39663;45.432;28.050;2023-08-12T00:41:21;101617.77;;;22.98;41.09
52291;BME280;39663;45.432;28.050;2023-08-12T00:41:53;101619.40;;;23.10;41.00
52291;BME280;39663;45.432;28.050;2023-08-12T00:42:24;101617.18;;;23.11;40.71
52291;BME280;39663;45.432;28.050;2023-08-12T00:42:56;101619.34;;;23.35;40.78
52291;BME280;39663;45.432;28.050;2023-08-12T00:43:27;101624.96;;;22.95;41.02
52291;BME280;39663;45.432;28.050;2023-08-12T00:43:59;101624.88;;;22.93;40.72
52291;BME280;39663;45.432;28.050;2023-08-12T00:44:31;101621.54;;;23.30;40.66
52291;BME280;39663;45.432;28.050;2023-08-12T00:45:03;101623.53;;;23.38;40.48
52291;BME280;39663;45.432;28.050;2023-08-12T00:45:37;101627.11;;;23.25;40.72
52291;BME280;39663;45.432;28.050;2023-08-12T00:46:09;101626.23;;;23.48;40.61
52291;BME280;39663;45.432;28.050;2023-08-12T00:46:41;101626.59;;;23.18;40.95
52291;BME280;39663;45.432;28.050;2023-08-12T00:47:13;101624.05;;;23.19;41.03
52291;BME280;39663;45.432;28.050;2023-08-12T00:47:45;101627.58;;;23.09;41.09
52291;BME280;39663;45.432;28.050;2023-08-12T00:48:17;101632.16;;;23.16;41.16
52291;BME280;39663;45.432;28.050;2023-08-12T00:48:49;101630.97;;;22.85;41.10
52291;BME280;39663;45.432;28.050;2023-08-12T00:49:21;101632.49;;;23.20;40.88
52291;BME280;39663;45.432;28.050;2023-08-12T00:49:53;101633.46;;;23.36;40.99
52291;BME280;39663;45.432;28.050;2023-08-12T00:50:25;101630.36;;;23.15;40.79
52291;BME280;39663;45.432;28.050;2023-08-12T00:50:57;101628.93;;;23.36;40.90
52291;BME280;39663;45.432;28.050;2023-08-12T00:51:28;101629.43;;;23.20;40.99
52291;BME280;39663;45.432;28.050;2023-08-12T00:52:01;101629.97;;;23.22;40.74
52291;BME280;39663;45.432;28.050;2023-08-12T00:52:32;101629.19;;;23.00;41.16
52291;BME280;39663;45.432;28.050;2023-08-12T00:53:05;101630.40;;;22.84;40.99
52291;BME280;39663;45.432;28.050;2023-08-12T00:53:37;101632.51;;;23.00;41.23
52291;BME280;39663;45.432;28.050;2023-08-12T00:54:11;101634.98;;;22.95;41.33
52291;BME280;39663;45.432;28.050;2023-08-12T00:54:44;101635.67;;;23.08;41.16
52291;BME280;39663;45.432;28.050;2023-08-12T00:55:17;101636.16;;;23.15;41.12
52291;BME280;39663;45.432;28.050;2023-08-12T00:55:49;101633.77;;;23.10;41.05
52291;BME280;39663;45.432;28.050;2023-08-12T00:56:21;101634.28;;;23.14;41.02
52291;BME280;39663;45.432;28.050;2023-08-12T00:56:53;101636.41;;;23.09;41.20
52291;BME280;39663;45.432;28.050;2023-08-12T00:57:25;101637.26;;;23.13;40.96
52291;BME280;39663;45.432;28.050;2023-08-12T00:57:57;101634.52;;;23.14;41.16
52291;BME280;39663;45.432;28.050;2023-08-12T00:58:28;101637.16;;;23.01;41.39
52291;BME280;39663;45.432;28.050;2023-08-12T00:59:00;101636.33;;;23.07;41.21
52291;BME280;39663;45.432;28.050;2023-08-12T00:59:33;101637.72;;;23.12;41.25
52291;BME280;39663;45.432;28.050;2023-08-12T01:00:07;101634.66;;;22.98;40.86
52291;BME280;39663;45.432;28.050;2023-08-12T01:00:40;101634.74;;;23.11;41.21
52291;BME280;39663;45.432;28.050;2023-08-12T01:01:11;101635.96;;;23.08;41.15
52291;BME280;39663;45.432;28.050;2023-08-12T01:01:43;101637.03;;;23.16;40.98
52291;BME280;39663;45.432;28.050;2023-08-12T01:02:15;101635.43;;;23.05;40.99
52291;BME280;39663;45.432;28.050;2023-08-12T01:02:47;101636.20;;;22.93;41.02
52291;BME280;39663;45.432;28.050;2023-08-12T01:03:19;101634.73;;;22.95;41.07
52291;BME280;39663;45.432;28.050;2023-08-12T01:03:52;101634.77;;;23.15;41.03
52291;BME280;39663;45.432;28.050;2023-08-12T01:04:23;101634.48;;;23.18;40.92
52291;BME280;39663;45.432;28.050;2023-08-12T01:04:55;101633.59;;;23.20;40.91
52291;BME280;39663;45.432;28.050;2023-08-12T01:05:27;101634.27;;;23.16;41.21
52291;BME280;39663;45.432;28.050;2023-08-12T01:06:13;101635.91;;;22.96;41.12
52291;BME280;39663;45.432;28.050;2023-08-12T01:06:45;101635.67;;;23.13;41.11
52291;BME280;39663;45.432;28.050;2023-08-12T01:07:16;101636.58;;;23.05;41.20
52291;BME280;39663;45.432;28.050;2023-08-12T01:07:48;101634.58;;;23.15;40.97
52291;BME280;39663;45.432;28.050;2023-08-12T01:08:20;101632.78;;;23.06;41.07
52291;BME280;39663;45.432;28.050;2023-08-12T01:08:52;101633.37;;;23.07;41.13
52291;BME280;39663;45.432;28.050;2023-08-12T01:09:24;101630.54;;;23.06;41.03
52291;BME280;39663;45.432;28.050;2023-08-12T01:09:55;101631.26;;;23.00;41.26
52291;BME280;39663;45.432;28.050;2023-08-12T01:10:32;101628.99;;;23.01;41.19
52291;BME280;39663;45.432;28.050;2023-08-12T01:11:11;101627.52;;;22.96;41.34
52291;BME280;39663;45.432;28.050;2023-08-12T01:11:51;101626.05;;;23.00;41.34
52291;BME280;39663;45.432;28.050;2023-08-12T01:12:31;101624.87;;;23.08;41.19
52291;BME280;39663;45.432;28.050;2023-08-12T01:13:13;101625.53;;;23.03;41.14
52291;BME280;39663;45.432;28.050;2023-08-12T01:13:55;101622.65;;;23.25;41.10
52291;BME280;39663;45.432;28.050;2023-08-12T01:14:35;101622.74;;;23.07;41.38
52291;BME280;39663;45.432;28.050;2023-08-12T01:15:14;101622.45;;;22.85;41.29
52291;BME280;39663;45.432;28.050;2023-08-12T01:15:47;101623.39;;;23.00;41.26
52291;BME280;39663;45.432;28.050;2023-08-12T01:16:21;101618.83;;;22.93;41.18
52291;BME280;39663;45.432;28.050;2023-08-12T01:16:57;101620.27;;;22.90;41.55
52291;BME280;39663;45.432;28.050;2023-08-12T01:17:30;101619.44;;;22.89;41.38
52291;BME280;39663;45.432;28.050;2023-08-12T01:18:04;101619.30;;;22.82;41.37
52291;BME280;39663;45.432;28.050;2023-08-12T01:18:37;101620.16;;;22.96;41.13
52291;BME280;39663;45.432;28.050;2023-08-12T01:19:16;101621.21;;;22.75;41.31
52291;BME280;39663;45.432;28.050;2023-08-12T01:19:53;101622.68;;;22.96;41.37
52291;BME280;39663;45.432;28.050;2023-08-12T01:20:25;101621.68;;;22.95;41.13
52291;BME280;39663;45.432;28.050;2023-08-12T01:20:57;101622.65;;;23.02;41.12
52291;BME280;39663;45.432;28.050;2023-08-12T01:21:30;101620.86;;;23.02;41.01
52291;BME280;39663;45.432;28.050;2023-08-12T01:22:03;101619.31;;;22.83;41.56
52291;BME280;39663;45.432;28.050;2023-08-12T01:22:38;101617.96;;;22.84;41.62
52291;BME280;39663;45.432;28.050;2023-08-12T01:23:10;101619.84;;;23.03;41.65
52291;BME280;39663;45.432;28.050;2023-08-12T01:23:42;101619.71;;;22.88;41.60
52291;BME280;39663;45.432;28.050;2023-08-12T01:24:14;101618.32;;;22.74;41.38
52291;BME280;39663;45.432;28.050;2023-08-12T01:24:46;101617.62;;;23.00;41.36
52291;BME280;39663;45.432;28.050;2023-08-12T01:25:18;101618.87;;;23.22;41.12
52291;BME280;39663;45.432;28.050;2023-08-12T01:25:49;101618.67;;;23.18;41.34
52291;BME280;39663;45.432;28.050;2023-08-12T01:26:21;101618.85;;;23.43;41.16
52291;BME280;39663;45.432;28.050;2023-08-12T01:26:53;101618.07;;;23.02;41.50
52291;BME280;39663;45.432;28.050;2023-08-12T01:27:24;101616.47;;;23.30;41.44
52291;BME280;39663;45.432;28.050;2023-08-12T01:27:56;101615.67;;;23.14;40.95
52291;BME280;39663;45.432;28.050;2023-08-12T01:28:27;101616.13;;;23.04;41.21
52291;BME280;39663;45.432;28.050;2023-08-12T01:28:59;101619.31;;;23.06;41.32
52291;BME280;39663;45.432;28.050;2023-08-12T01:29:31;101619.19;;;23.13;40.99
52291;BME280;39663;45.432;28.050;2023-08-12T01:30:05;101619.16;;;23.24;41.25
52291;BME280;39663;45.432;28.050;2023-08-12T01:30:42;101619.80;;;23.33;41.04
52291;BME280;39663;45.432;28.050;2023-08-12T01:31:18;101619.48;;;23.09;41.22
52291;BME280;39663;45.432;28.050;2023-08-12T01:32:07;101621.61;;;23.06;41.28
52291;BME280;39663;45.432;28.050;2023-08-12T01:32:44;101620.33;;;23.04;41.29
52291;BME280;39663;45.432;28.050;2023-08-12T01:33:21;101621.03;;;23.04;41.29
52291;BME280;39663;45.432;28.050;2023-08-12T01:34:01;101620.90;;;23.10;41.15
52291;BME280;39663;45.432;28.050;2023-08-12T01:34:39;101621.83;;;23.22;41.18
52291;BME280;39663;45.432;28.050;2023-08-12T01:35:16;101620.54;;;23.14;41.13
52291;BME280;39663;45.432;28.050;2023-08-12T01:35:53;101620.12;;;23.12;41.14
52291;BME280;39663;45.432;28.050;2023-08-12T01:36:29;101620.22;;;23.06;40.97
52291;BME280;39663;45.432;28.050;2023-08-12T01:37:04;101620.81;;;23.07;41.11
52291;BME280;39663;45.432;28.050;2023-08-12T01:37:36;101620.17;;;23.06;41.19
52291;BME280;39663;45.432;28.050;2023-08-12T01:38:09;101619.44;;;23.09;41.05
52291;BME280;39663;45.432;28.050;2023-08-12T01:38:43;101621.22;;;23.03;41.16
52291;BME280;39663;45.432;28.050;2023-08-12T01:39:16;101620.36;;;23.11;40.99
52291;BME280;39663;45.432;28.050;2023-08-12T01:39:49;101622.04;;;23.04;41.14
52291;BME280;39663;45.432;28.050;2023-08-12T01:40:21;101619.78;;;22.98;41.25
52291;BME280;39663;45.432;28.050;2023-08-12T01:40:54;101622.85;;;22.99;41.27
52291;BME280;39663;45.432;28.050;2023-08-12T01:41:27;101621.70;;;23.01;41.14
52291;BME280;39663;45.432;28.050;2023-08-12T01:41:59;101619.60;;;22.90;41.29
52291;BME280;39663;45.432;28.050;2023-08-12T01:42:33;101620.78;;;22.92;41.37
52291;BME280;39663;45.432;28.050;2023-08-12T01:45:11;101620.23;;;22.86;41.40
52291;BME280;39663;45.432;28.050;2023-08-12T01:45:58;101621.25;;;22.92;41.36
52291;BME280;39663;45.432;28.050;2023-08-12T01:46:44;101622.12;;;22.75;41.46
52291;BME280;39663;45.432;28.050;2023-08-12T01:47:16;101623.63;;;23.17;41.38
52291;BME280;39663;45.432;28.050;2023-08-12T01:47:48;101626.03;;;23.04;41.37
52291;BME280;39663;45.432;28.050;2023-08-12T01:48:19;101624.99;;;22.95;41.31
52291;BME280;39663;45.432;28.050;2023-08-12T01:48:50;101623.99;;;22.99;41.18
52291;BME280;39663;45.432;28.050;2023-08-12T01:49:22;101624.79;;;23.15;41.00
52291;BME280;39663;45.432;28.050;2023-08-12T01:49:53;101627.38;;;22.80;41.30
52291;BME280;39663;45.432;28.050;2023-08-12T01:50:25;101627.91;;;22.95;41.17
52291;BME280;39663;45.432;28.050;2023-08-12T01:50:57;101626.05;;;23.00;41.32
52291;BME280;39663;45.432;28.050;2023-08-12T01:51:29;101627.56;;;22.97;41.41
52291;BME280;39663;45.432;28.050;2023-08-12T01:52:01;101627.57;;;23.00;41.34
52291;BME280;39663;45.432;28.050;2023-08-12T01:52:33;101626.50;;;23.06;41.35
52291;BME280;39663;45.432;28.050;2023-08-12T01:53:04;101629.76;;;23.08;41.24
52291;BME280;39663;45.432;28.050;2023-08-12T01:53:36;101627.45;;;23.08;41.08
52291;BME280;39663;45.432;28.050;2023-08-12T01:54:07;101629.30;;;23.12;41.06
52291;BME280;39663;45.432;28.050;2023-08-12T01:54:39;101629.48;;;23.25;40.79
52291;BME280;39663;45.432;28.050;2023-08-12T01:55:10;101630.26;;;23.27;41.05
52291;BME280;39663;45.432;28.050;2023-08-12T01:55:43;101632.10;;;23.20;40.84
52291;BME280;39663;45.432;28.050;2023-08-12T01:56:15;101630.58;;;23.12;40.99
52291;BME280;39663;45.432;28.050;2023-08-12T01:56:46;101632.78;;;23.02;41.47
52291;BME280;39663;45.432;28.050;2023-08-12T01:57:18;101629.79;;;23.05;41.27
52291;BME280;39663;45.432;28.050;2023-08-12T01:57:49;101631.07;;;22.95;41.40
52291;BME280;39663;45.432;28.050;2023-08-12T01:58:21;101631.27;;;23.02;41.14
52291;BME280;39663;45.432;28.050;2023-08-12T01:58:52;101629.61;;;23.03;41.20
52291;BME280;39663;45.432;28.050;2023-08-12T01:59:23;101630.52;;;23.21;41.11
52291;BME280;39663;45.432;28.050;2023-08-12T01:59:55;101633.76;;;23.00;41.09
52291;BME280;39663;45.432;28.050;2023-08-12T02:00:27;101631.48;;;22.91;41.28
52291;BME280;39663;45.432;28.050;2023-08-12T02:00:58;101632.66;;;22.82;41.47
52291;BME280;39663;45.432;28.050;2023-08-12T02:01:30;101630.83;;;22.43;41.53
52291;BME280;39663;45.432;28.050;2023-08-12T02:02:02;101631.10;;;22.98;41.69
52291;BME280;39663;45.432;28.050;2023-08-12T02:02:33;101630.82;;;22.92;41.35
52291;BME280;39663;45.432;28.050;2023-08-12T02:03:05;101633.43;;;22.91;41.60
52291;BME280;39663;45.432;28.050;2023-08-12T02:03:37;101632.34;;;22.88;41.44
52291;BME280;39663;45.432;28.050;2023-08-12T02:04:08;101632.40;;;22.91;41.25
52291;BME280;39663;45.432;28.050;2023-08-12T02:04:40;101633.52;;;22.91;41.47
52291;BME280;39663;45.432;28.050;2023-08-12T02:05:12;101632.11;;;22.93;41.18
52291;BME280;39663;45.432;28.050;2023-08-12T02:05:43;101632.46;;;22.87;41.51
52291;BME280;39663;45.432;28.050;2023-08-12T02:06:15;101632.93;;;23.04;41.41
52291;BME280;39663;45.432;28.050;2023-08-12T02:06:46;101637.06;;;22.76;41.40
52291;BME280;39663;45.432;28.050;2023-08-12T02:07:18;101636.47;;;22.71;41.65
52291;BME280;39663;45.432;28.050;2023-08-12T02:07:49;101638.63;;;22.87;41.94
52291;BME280;39663;45.432;28.050;2023-08-12T02:08:21;101633.43;;;22.74;41.72
52291;BME280;39663;45.432;28.050;2023-08-12T02:08:52;101638.56;;;22.50;41.76
52291;BME280;39663;45.432;28.050;2023-08-12T02:09:24;101638.00;;;22.61;41.79
52291;BME280;39663;45.432;28.050;2023-08-12T02:09:55;101637.22;;;22.64;41.89
52291;BME280;39663;45.432;28.050;2023-08-12T02:10:27;101638.03;;;22.85;41.68
52291;BME280;39663;45.432;28.050;2023-08-12T02:10:58;101637.57;;;22.99;41.41
52291;BME280;39663;45.432;28.050;2023-08-12T02:11:30;101638.07;;;22.66;41.84
52291;BME280;39663;45.432;28.050;2023-08-12T02:12:01;101638.09;;;22.91;41.69
52291;BME280;39663;45.432;28.050;2023-08-12T02:12:33;101637.26;;;22.62;41.82
52291;BME280;39663;45.432;28.050;2023-08-12T02:13:04;101640.00;;;22.87;41.99
52291;BME280;39663;45.432;28.050;2023-08-12T02:13:36;101639.37;;;22.92;41.66
52291;BME280;39663;45.432;28.050;2023-08-12T02:14:07;101642.26;;;22.78;41.87
52291;BME280;39663;45.432;28.050;2023-08-12T02:14:39;101640.50;;;22.79;41.79
52291;BME280;39663;45.432;28.050;2023-08-12T02:15:10;101638.40;;;23.01;41.72
52291;BME280;39663;45.432;28.050;2023-08-12T02:15:42;101638.31;;;22.92;41.34
52291;BME280;39663;45.432;28.050;2023-08-12T02:16:14;101641.85;;;23.09;41.54
52291;BME280;39663;45.432;28.050;2023-08-12T02:16:46;101640.97;;;22.96;41.35
52291;BME280;39663;45.432;28.050;2023-08-12T02:17:17;101642.66;;;22.97;41.23
52291;BME280;39663;45.432;28.050;2023-08-12T02:17:49;101641.22;;;23.14;41.52
52291;BME280;39663;45.432;28.050;2023-08-12T02:18:20;101641.75;;;23.19;41.19
52291;BME280;39663;45.432;28.050;2023-08-12T02:18:52;101642.74;;;23.19;41.15
52291;BME280;39663;45.432;28.050;2023-08-12T02:19:23;101645.29;;;23.05;41.31
52291;BME280;39663;45.432;28.050;2023-08-12T02:19:55;101644.97;;;22.79;41.54
52291;BME280;39663;45.432;28.050;2023-08-12T02:20:26;101647.12;;;22.83;41.43
52291;BME280;39663;45.432;28.050;2023-08-12T02:20:58;101647.10;;;22.65;41.50
52291;BME280;39663;45.432;28.050;2023-08-12T02:21:29;101648.36;;;22.62;41.40
52291;BME280;39663;45.432;28.050;2023-08-12T02:22:02;101650.26;;;22.88;41.67
52291;BME280;39663;45.432;28.050;2023-08-12T02:22:33;101649.63;;;22.79;41.71
52291;BME280;39663;45.432;28.050;2023-08-12T02:23:05;101647.98;;;22.74;41.66
52291;BME280;39663;45.432;28.050;2023-08-12T02:23:36;101649.41;;;23.00;41.55
52291;BME280;39663;45.432;28.050;2023-08-12T02:24:08;101651.42;;;22.81;41.47
52291;BME280;39663;45.432;28.050;2023-08-12T02:24:40;101653.07;;;22.99;41.56
52291;BME280;39663;45.432;28.050;2023-08-12T02:25:11;101654.48;;;23.03;41.46
52291;BME280;39663;45.432;28.050;2023-08-12T02:25:43;101653.51;;;22.69;41.77
52291;BME280;39663;45.432;28.050;2023-08-12T02:26:15;101651.90;;;22.91;41.65
52291;BME280;39663;45.432;28.050;2023-08-12T02:26:46;101653.36;;;22.80;41.47
52291;BME280;39663;45.432;28.050;2023-08-12T02:27:18;101655.91;;;22.82;41.37
52291;BME280;39663;45.432;28.050;2023-08-12T02:27:49;101655.90;;;22.95;41.52
52291;BME280;39663;45.432;28.050;2023-08-12T02:28:21;101655.11;;;22.67;41.87
52291;BME280;39663;45.432;28.050;2023-08-12T02:28:52;101655.77;;;22.87;41.50
52291;BME280;39663;45.432;28.050;2023-08-12T02:29:24;101656.78;;;22.85;41.72
52291;BME280;39663;45.432;28.050;2023-08-12T02:29:55;101655.31;;;22.64;41.77
52291;BME280;39663;45.432;28.050;2023-08-12T02:30:30;101656.78;;;22.71;41.65
52291;BME280;39663;45.432;28.050;2023-08-12T02:31:02;101656.01;;;22.91;41.48
52291;BME280;39663;45.432;28.050;2023-08-12T02:31:33;101653.69;;;22.74;41.38
52291;BME280;39663;45.432;28.050;2023-08-12T02:32:05;101654.78;;;22.73;41.60
52291;BME280;39663;45.432;28.050;2023-08-12T02:32:36;101655.71;;;22.76;41.51
52291;BME280;39663;45.432;28.050;2023-08-12T02:33:08;101657.92;;;22.80;41.82
52291;BME280;39663;45.432;28.050;2023-08-12T02:33:39;101657.49;;;22.68;41.63
52291;BME280;39663;45.432;28.050;2023-08-12T02:34:11;101658.91;;;22.71;41.52
52291;BME280;39663;45.432;28.050;2023-08-12T02:34:42;101657.70;;;22.63;41.76
52291;BME280;39663;45.432;28.050;2023-08-12T02:35:14;101661.24;;;22.67;41.56
52291;BME280;39663;45.432;28.050;2023-08-12T02:35:45;101660.27;;;23.05;41.81
52291;BME280;39663;45.432;28.050;2023-08-12T02:36:17;101661.87;;;22.91;41.63
52291;BME280;39663;45.432;28.050;2023-08-12T02:36:48;101661.03;;;22.58;41.81
52291;BME280;39663;45.432;28.050;2023-08-12T02:37:20;101659.83;;;22.72;41.69
52291;BME280;39663;45.432;28.050;2023-08-12T02:37:52;101662.11;;;22.42;41.94
52291;BME280;39663;45.432;28.050;2023-08-12T02:38:23;101664.76;;;22.65;42.08
52291;BME280;39663;45.432;28.050;2023-08-12T02:38:55;101662.49;;;22.69;42.13
52291;BME280;39663;45.432;28.050;2023-08-12T02:39:26;101663.08;;;22.47;42.03
52291;BME280;39663;45.432;28.050;2023-08-12T02:39:58;101664.08;;;22.48;42.09
52291;BME280;39663;45.432;28.050;2023-08-12T02:40:30;101665.52;;;22.46;42.24
52291;BME280;39663;45.432;28.050;2023-08-12T02:41:01;101664.76;;;22.51;42.14
52291;BME280;39663;45.432;28.050;2023-08-12T02:41:33;101665.83;;;22.72;41.86
52291;BME280;39663;45.432;28.050;2023-08-12T02:42:05;101666.62;;;22.84;41.65
52291;BME280;39663;45.432;28.050;2023-08-12T02:42:36;101666.08;;;22.83;41.75
52291;BME280;39663;45.432;28.050;2023-08-12T02:43:08;101667.00;;;22.80;41.61
52291;BME280;39663;45.432;28.050;2023-08-12T02:43:40;101666.14;;;22.71;41.46
52291;BME280;39663;45.432;28.050;2023-08-12T02:44:11;101663.21;;;22.85;41.51
52291;BME280;39663;45.432;28.050;2023-08-12T02:44:43;101664.63;;;22.82;41.54
52291;BME280;39663;45.432;28.050;2023-08-12T02:45:14;101663.96;;;22.84;42.04
52291;BME280;39663;45.432;28.050;2023-08-12T02:45:46;101664.69;;;22.72;41.76
52291;BME280;39663;45.432;28.050;2023-08-12T02:46:18;101664.87;;;22.71;41.77
52291;BME280;39663;45.432;28.050;2023-08-12T02:46:49;101665.27;;;22.39;42.20
52291;BME280;39663;45.432;28.050;2023-08-12T02:47:21;101664.98;;;22.30;42.12
52291;BME280;39663;45.432;28.050;2023-08-12T02:47:53;101666.17;;;22.51;42.20
52291;BME280;39663;45.432;28.050;2023-08-12T02:48:25;101666.05;;;22.49;42.25
52291;BME280;39663;45.432;28.050;2023-08-12T02:48:57;101664.55;;;22.56;42.00
52291;BME280;39663;45.432;28.050;2023-08-12T02:49:28;101663.26;;;22.61;42.05
52291;BME280;39663;45.432;28.050;2023-08-12T02:50:00;101665.42;;;22.52;42.26